sensor_id;sensor_type;location;lat;lon;timestamp;temperature;humidity
35463;DHT22;21578;47.892;9.970;2022-11-20T00:01:25;3.50;96.60
35463;DHT22;21578;47.892;9.970;2022-11-20T00:06:13;3.40;96.60
35463;DHT22;21578;47.892;9.970;2022-11-20T00:11:04;3.30;96.60
35463;DHT22;21578;47.892;9.970;2022-11-20T00:15:57;3.20;96.60
35463;DHT22;21578;47.892;9.970;2022-11-20T00:20:44;3.30;96.60
35463;DHT22;21578;47.892;9.970;2022-11-20T00:25:32;3.30;96.60
35463;DHT22;21578;47.892;9.970;2022-11-20T00:30:21;3.30;96.60
35463;DHT22;21578;47.892;9.970;2022-11-20T00:35:08;3.30;96.60
35463;DHT22;21578;47.892;9.970;2022-11-20T00:39:55;3.30;96.60
35463;DHT22;21578;47.892;9.970;2022-11-20T00:44:42;3.50;96.60
35463;DHT22;21578;47.892;9.970;2022-11-20T00:49:30;3.50;96.60
35463;DHT22;21578;47.892;9.970;2022-11-20T00:54:17;3.30;96.60
35463;DHT22;21578;47.892;9.970;2022-11-20T00:59:04;3.50;96.60
35463;DHT22;21578;47.892;9.970;2022-11-20T01:03:52;3.40;96.60
35463;DHT22;21578;47.892;9.970;2022-11-20T01:08:41;3.40;96.60
35463;DHT22;21578;47.892;9.970;2022-11-20T01:13:29;3.50;96.60
35463;DHT22;21578;47.892;9.970;2022-11-20T01:18:26;3.50;96.60
35463;DHT22;21578;47.892;9.970;2022-11-20T01:23:13;3.50;96.60
35463;DHT22;21578;47.892;9.970;2022-11-20T01:28:01;3.60;96.60
35463;DHT22;21578;47.892;9.970;2022-11-20T01:32:48;3.50;96.60
35463;DHT22;21578;47.892;9.970;2022-11-20T01:37:35;3.60;96.60
35463;DHT22;21578;47.892;9.970;2022-11-20T01:42:22;3.60;96.60
35463;DHT22;21578;47.892;9.970;2022-11-20T01:47:34;3.70;96.60
35463;DHT22;21578;47.892;9.970;2022-11-20T01:52:24;3.70;96.60
35463;DHT22;21578;47.892;9.970;2022-11-20T01:57:12;3.80;96.60
35463;DHT22;21578;47.892;9.970;2022-11-20T02:01:59;3.80;96.60
35463;DHT22;21578;47.892;9.970;2022-11-20T02:06:50;3.70;96.60
35463;DHT22;21578;47.892;9.970;2022-11-20T02:11:38;3.80;96.60
35463;DHT22;21578;47.892;9.970;2022-11-20T02:16:28;3.80;96.60
35463;DHT22;21578;47.892;9.970;2022-11-20T02:21:30;3.80;96.60
35463;DHT22;21578;47.892;9.970;2022-11-20T02:26:21;3.70;96.60
35463;DHT22;21578;47.892;9.970;2022-11-20T02:31:09;3.70;96.60
35463;DHT22;21578;47.892;9.970;2022-11-20T02:35:56;3.70;96.60
35463;DHT22;21578;47.892;9.970;2022-11-20T02:40:43;3.80;96.60
35463;DHT22;21578;47.892;9.970;2022-11-20T02:45:31;3.80;96.60
35463;DHT22;21578;47.892;9.970;2022-11-20T02:50:19;3.70;96.60
35463;DHT22;21578;47.892;9.970;2022-11-20T02:55:06;3.80;96.60
35463;DHT22;21578;47.892;9.970;2022-11-20T02:59:53;3.80;96.60
35463;DHT22;21578;47.892;9.970;2022-11-20T03:04:42;3.90;96.60
35463;DHT22;21578;47.892;9.970;2022-11-20T03:09:28;3.90;96.60
35463;DHT22;21578;47.892;9.970;2022-11-20T03:14:16;3.90;96.60
35463;DHT22;21578;47.892;9.970;2022-11-20T03:19:03;3.90;96.60
35463;DHT22;21578;47.892;9.970;2022-11-20T03:33:42;3.90;96.60
35463;DHT22;21578;47.892;9.970;2022-11-20T03:38:30;3.80;96.60
35463;DHT22;21578;47.892;9.970;2022-11-20T03:43:17;3.90;96.60
35463;DHT22;21578;47.892;9.970;2022-11-20T03:48:04;3.90;96.60
35463;DHT22;21578;47.892;9.970;2022-11-20T03:52:53;3.90;96.60
35463;DHT22;21578;47.892;9.970;2022-11-20T03:57:39;3.90;96.60
35463;DHT22;21578;47.892;9.970;2022-11-20T04:02:26;3.90;96.60
35463;DHT22;21578;47.892;9.970;2022-11-20T04:07:13;3.90;96.60
35463;DHT22;21578;47.892;9.970;2022-11-20T04:12:02;3.80;96.60
35463;DHT22;21578;47.892;9.970;2022-11-20T04:16:49;3.80;96.60
35463;DHT22;21578;47.892;9.970;2022-11-20T04:21:36;3.80;96.60
35463;DHT22;21578;47.892;9.970;2022-11-20T04:26:25;3.80;96.60
35463;DHT22;21578;47.892;9.970;2022-11-20T04:31:16;3.90;96.60
35463;DHT22;21578;47.892;9.970;2022-11-20T04:36:04;3.80;96.60
35463;DHT22;21578;47.892;9.970;2022-11-20T04:40:56;3.80;96.60
35463;DHT22;21578;47.892;9.970;2022-11-20T04:45:43;3.70;96.60
35463;DHT22;21578;47.892;9.970;2022-11-20T04:50:41;3.70;96.60
35463;DHT22;21578;47.892;9.970;2022-11-20T04:55:28;3.70;96.60
35463;DHT22;21578;47.892;9.970;2022-11-20T05:00:15;3.60;96.60
35463;DHT22;21578;47.892;9.970;2022-11-20T05:05:03;3.70;96.60
35463;DHT22;21578;47.892;9.970;2022-11-20T05:09:51;3.70;96.60
35463;DHT22;21578;47.892;9.970;2022-11-20T05:14:38;3.60;96.60
35463;DHT22;21578;47.892;9.970;2022-11-20T05:19:25;3.60;96.60
35463;DHT22;21578;47.892;9.970;2022-11-20T05:24:12;3.60;96.60
35463;DHT22;21578;47.892;9.970;2022-11-20T05:29:00;3.60;96.60
35463;DHT22;21578;47.892;9.970;2022-11-20T05:33:47;3.50;96.60
35463;DHT22;21578;47.892;9.970;2022-11-20T05:38:34;3.50;96.60
35463;DHT22;21578;47.892;9.970;2022-11-20T05:43:21;3.50;96.60
35463;DHT22;21578;47.892;9.970;2022-11-20T05:48:09;3.50;96.60
35463;DHT22;21578;47.892;9.970;2022-11-20T05:52:58;3.60;96.60
35463;DHT22;21578;47.892;9.970;2022-11-20T05:57:44;3.70;96.60
35463;DHT22;21578;47.892;9.970;2022-11-20T06:02:34;3.60;96.60
35463;DHT22;21578;47.892;9.970;2022-11-20T06:07:22;3.60;96.60
35463;DHT22;21578;47.892;9.970;2022-11-20T06:12:09;3.70;96.60
35463;DHT22;21578;47.892;9.970;2022-11-20T06:16:56;3.70;96.60
35463;DHT22;21578;47.892;9.970;2022-11-20T06:21:43;3.70;96.60
35463;DHT22;21578;47.892;9.970;2022-11-20T06:26:31;3.70;96.60
35463;DHT22;21578;47.892;9.970;2022-11-20T06:31:20;3.80;96.60
35463;DHT22;21578;47.892;9.970;2022-11-20T06:36:08;3.80;96.60
35463;DHT22;21578;47.892;9.970;2022-11-20T06:40:56;3.80;96.60
35463;DHT22;21578;47.892;9.970;2022-11-20T06:45:44;3.80;96.60
35463;DHT22;21578;47.892;9.970;2022-11-20T06:50:31;3.70;96.60
35463;DHT22;21578;47.892;9.970;2022-11-20T06:55:18;3.80;96.60
35463;DHT22;21578;47.892;9.970;2022-11-20T07:00:06;3.80;96.60
35463;DHT22;21578;47.892;9.970;2022-11-20T07:04:56;3.90;96.60
35463;DHT22;21578;47.892;9.970;2022-11-20T07:09:43;3.90;96.60
35463;DHT22;21578;47.892;9.970;2022-11-20T07:14:30;3.90;96.60
35463;DHT22;21578;47.892;9.970;2022-11-20T07:19:17;3.90;96.60
35463;DHT22;21578;47.892;9.970;2022-11-20T07:24:05;4.00;96.60
35463;DHT22;21578;47.892;9.970;2022-11-20T07:28:52;3.90;96.60
35463;DHT22;21578;47.892;9.970;2022-11-20T07:33:39;3.90;96.60
35463;DHT22;21578;47.892;9.970;2022-11-20T07:38:26;4.00;96.60
35463;DHT22;21578;47.892;9.970;2022-11-20T07:43:15;4.10;96.60
35463;DHT22;21578;47.892;9.970;2022-11-20T07:48:02;4.10;96.60
35463;DHT22;21578;47.892;9.970;2022-11-20T07:52:49;4.10;96.60
35463;DHT22;21578;47.892;9.970;2022-11-20T07:57:36;4.20;96.60
35463;DHT22;21578;47.892;9.970;2022-11-20T08:02:24;4.20;96.60
35463;DHT22;21578;47.892;9.970;2022-11-20T08:07:11;4.30;96.60
35463;DHT22;21578;47.892;9.970;2022-11-20T08:11:58;4.30;96.60
35463;DHT22;21578;47.892;9.970;2022-11-20T08:17:02;4.30;96.60
35463;DHT22;21578;47.892;9.970;2022-11-20T08:21:51;4.40;96.60
35463;DHT22;21578;47.892;9.970;2022-11-20T08:26:39;4.40;96.60
35463;DHT22;21578;47.892;9.970;2022-11-20T08:31:27;4.40;96.60
35463;DHT22;21578;47.892;9.970;2022-11-20T08:36:14;4.40;96.60
35463;DHT22;21578;47.892;9.970;2022-11-20T08:41:03;4.50;96.60
35463;DHT22;21578;47.892;9.970;2022-11-20T08:46:08;4.60;96.60
35463;DHT22;21578;47.892;9.970;2022-11-20T18:32:20;4.10;96.60
35463;DHT22;21578;47.892;9.970;2022-11-20T18:37:07;4.00;96.60
35463;DHT22;21578;47.892;9.970;2022-11-20T18:41:55;4.00;96.60
35463;DHT22;21578;47.892;9.970;2022-11-20T18:47:00;3.90;96.60
35463;DHT22;21578;47.892;9.970;2022-11-20T18:51:48;4.00;96.60
35463;DHT22;21578;47.892;9.970;2022-11-20T18:56:35;4.00;96.60
35463;DHT22;21578;47.892;9.970;2022-11-20T19:01:22;4.00;96.60
35463;DHT22;21578;47.892;9.970;2022-11-20T19:06:11;4.00;96.60
35463;DHT22;21578;47.892;9.970;2022-11-20T19:11:06;4.10;96.60
35463;DHT22;21578;47.892;9.970;2022-11-20T19:15:53;4.10;96.60
35463;DHT22;21578;47.892;9.970;2022-11-20T19:20:40;4.00;96.60
35463;DHT22;21578;47.892;9.970;2022-11-20T19:25:29;4.00;96.60
35463;DHT22;21578;47.892;9.970;2022-11-20T19:30:18;4.10;96.60
35463;DHT22;21578;47.892;9.970;2022-11-20T19:35:05;4.10;96.60
35463;DHT22;21578;47.892;9.970;2022-11-20T19:39:52;4.20;96.60
35463;DHT22;21578;47.892;9.970;2022-11-20T19:44:41;4.20;96.60
35463;DHT22;21578;47.892;9.970;2022-11-20T19:49:29;4.20;96.60
35463;DHT22;21578;47.892;9.970;2022-11-20T19:54:16;4.30;96.60
35463;DHT22;21578;47.892;9.970;2022-11-20T19:59:03;4.40;96.60
35463;DHT22;21578;47.892;9.970;2022-11-20T20:03:51;4.40;96.60
35463;DHT22;21578;47.892;9.970;2022-11-20T20:08:40;4.40;96.60
35463;DHT22;21578;47.892;9.970;2022-11-20T20:13:27;4.40;96.60
35463;DHT22;21578;47.892;9.970;2022-11-20T20:18:15;4.50;96.60
35463;DHT22;21578;47.892;9.970;2022-11-20T20:23:02;4.50;96.60
35463;DHT22;21578;47.892;9.970;2022-11-20T20:27:53;4.50;96.60
35463;DHT22;21578;47.892;9.970;2022-11-20T20:32:40;4.50;96.60
35463;DHT22;21578;47.892;9.970;2022-11-20T20:37:27;4.50;96.60
35463;DHT22;21578;47.892;9.970;2022-11-20T20:42:14;4.30;96.60
35463;DHT22;21578;47.892;9.970;2022-11-20T20:47:03;4.00;96.60
35463;DHT22;21578;47.892;9.970;2022-11-20T20:51:50;3.80;96.60
35463;DHT22;21578;47.892;9.970;2022-11-20T20:56:37;3.60;96.60
35463;DHT22;21578;47.892;9.970;2022-11-20T21:01:25;3.60;96.60
35463;DHT22;21578;47.892;9.970;2022-11-20T21:06:15;3.50;96.60
35463;DHT22;21578;47.892;9.970;2022-11-20T21:11:04;3.40;96.60
35463;DHT22;21578;47.892;9.970;2022-11-20T21:15:52;3.40;96.60
35463;DHT22;21578;47.892;9.970;2022-11-20T21:20:39;3.30;96.60
35463;DHT22;21578;47.892;9.970;2022-11-20T21:25:45;3.20;96.60
35463;DHT22;21578;47.892;9.970;2022-11-20T21:30:32;3.20;96.60
35463;DHT22;21578;47.892;9.970;2022-11-20T21:35:19;3.10;96.60
35463;DHT22;21578;47.892;9.970;2022-11-20T21:40:07;3.10;96.60
35463;DHT22;21578;47.892;9.970;2022-11-20T21:44:56;3.00;96.60
35463;DHT22;21578;47.892;9.970;2022-11-20T21:49:43;2.90;96.60
35463;DHT22;21578;47.892;9.970;2022-11-20T21:54:30;2.70;96.60
35463;DHT22;21578;47.892;9.970;2022-11-20T21:59:20;2.80;96.60
35463;DHT22;21578;47.892;9.970;2022-11-20T22:04:13;2.70;96.60
35463;DHT22;21578;47.892;9.970;2022-11-20T22:09:01;2.70;96.60
35463;DHT22;21578;47.892;9.970;2022-11-20T22:13:48;2.60;96.60
35463;DHT22;21578;47.892;9.970;2022-11-20T22:18:55;2.70;96.60
35463;DHT22;21578;47.892;9.970;2022-11-20T22:23:43;2.70;96.60
35463;DHT22;21578;47.892;9.970;2022-11-20T22:28:31;2.80;96.60
35463;DHT22;21578;47.892;9.970;2022-11-20T22:33:18;2.90;96.60
35463;DHT22;21578;47.892;9.970;2022-11-20T22:38:05;3.00;96.60
35463;DHT22;21578;47.892;9.970;2022-11-20T22:42:53;3.10;96.60
35463;DHT22;21578;47.892;9.970;2022-11-20T22:47:40;3.10;96.60
35463;DHT22;21578;47.892;9.970;2022-11-20T22:52:27;3.10;96.60
35463;DHT22;21578;47.892;9.970;2022-11-20T22:57:14;3.10;96.60
35463;DHT22;21578;47.892;9.970;2022-11-20T23:02:03;3.10;96.60
35463;DHT22;21578;47.892;9.970;2022-11-20T23:06:50;3.10;96.60
35463;DHT22;21578;47.892;9.970;2022-11-20T23:11:37;3.10;96.60
35463;DHT22;21578;47.892;9.970;2022-11-20T23:16:25;3.20;96.60
35463;DHT22;21578;47.892;9.970;2022-11-20T23:21:16;3.20;96.60
35463;DHT22;21578;47.892;9.970;2022-11-20T23:26:05;3.30;96.60
35463;DHT22;21578;47.892;9.970;2022-11-20T23:30:52;3.30;96.60
35463;DHT22;21578;47.892;9.970;2022-11-20T23:35:39;3.30;96.60
35463;DHT22;21578;47.892;9.970;2022-11-20T23:40:27;3.30;96.60
35463;DHT22;21578;47.892;9.970;2022-11-20T23:45:14;3.30;96.60
35463;DHT22;21578;47.892;9.970;2022-11-20T23:50:02;3.40;96.60
35463;DHT22;21578;47.892;9.970;2022-11-20T23:54:49;3.40;96.60
35463;DHT22;21578;47.892;9.970;2022-11-20T23:59:37;3.40;96.60
